createdAt,value
2023-03-14T00:00:23.734Z,4.10
2023-03-14T00:02:55.188Z,4.50
2023-03-14T00:05:22.884Z,4.00
2023-03-14T00:07:50.719Z,4.07
2023-03-14T00:10:18.761Z,4.70
2023-03-14T00:12:46.501Z,4.60
2023-03-14T00:15:14.212Z,4.07
2023-03-14T00:17:44.461Z,4.40
2023-03-14T00:20:12.750Z,4.43
2023-03-14T00:22:41.816Z,4.55
2023-03-14T00:25:11.418Z,3.37
2023-03-14T00:27:39.372Z,3.92
2023-03-14T00:30:09.129Z,4.00
2023-03-14T00:32:41.586Z,4.10
2023-03-14T00:35:10.320Z,4.25
2023-03-14T00:37:38.207Z,3.93
2023-03-14T00:40:09.244Z,4.50
2023-03-14T00:42:36.914Z,3.97
2023-03-14T00:45:05.078Z,3.75
2023-03-14T00:47:34.964Z,3.83
2023-03-14T00:50:03.351Z,3.30
2023-03-14T00:52:31.406Z,3.22
2023-03-14T00:54:58.888Z,3.47
2023-03-14T00:57:26.461Z,3.60
2023-03-14T00:59:55.038Z,3.60
2023-03-14T01:02:22.597Z,3.80
2023-03-14T01:04:50.379Z,3.35
2023-03-14T01:07:18.259Z,3.30
2023-03-14T01:09:47.323Z,3.40
2023-03-14T01:12:14.834Z,3.33
2023-03-14T01:14:43.313Z,3.50
2023-03-14T01:17:10.819Z,3.83
2023-03-14T01:19:38.884Z,4.40
2023-03-14T01:22:06.835Z,4.50
2023-03-14T01:24:34.356Z,4.10
2023-03-14T01:27:02.204Z,4.27
2023-03-14T01:29:30.206Z,4.53
2023-03-14T01:31:57.816Z,5.00
2023-03-14T01:34:25.848Z,4.25
2023-03-14T01:36:53.933Z,4.87
2023-03-14T01:39:21.784Z,4.50
2023-03-14T01:41:49.476Z,4.25
2023-03-14T01:44:17.571Z,4.87
2023-03-14T01:46:49.258Z,4.82
2023-03-14T01:49:32.858Z,4.90
2023-03-14T01:52:25.514Z,4.83
2023-03-14T01:54:57.212Z,4.93
2023-03-14T01:57:34.464Z,4.22
2023-03-14T02:00:24.052Z,4.65
2023-03-14T02:02:56.138Z,4.22
2023-03-14T02:05:26.958Z,4.10
2023-03-14T02:07:57.647Z,5.37
2023-03-14T02:10:29.183Z,4.10
2023-03-14T02:12:57.953Z,4.40
2023-03-14T02:15:26.223Z,4.37
2023-03-14T02:17:53.969Z,4.30
2023-03-14T02:20:22.702Z,4.65
2023-03-14T02:22:53.039Z,4.25
2023-03-14T02:25:38.885Z,4.03
2023-03-14T02:28:07.016Z,4.03
2023-03-14T02:30:36.126Z,3.40
2023-03-14T02:33:08.726Z,3.67
2023-03-14T02:35:59.177Z,3.80
2023-03-14T02:38:35.116Z,4.20
2023-03-14T02:41:03.931Z,4.28
2023-03-14T02:43:32.159Z,3.23
2023-03-14T02:46:01.944Z,3.55
2023-03-14T02:48:41.173Z,4.05
2023-03-14T02:51:11.702Z,4.05
2023-03-14T02:53:40.766Z,3.78
2023-03-14T02:56:09.749Z,3.80
2023-03-14T02:58:37.700Z,3.50
2023-03-14T03:01:06.498Z,3.30
2023-03-14T03:03:34.196Z,3.83
2023-03-14T03:06:02.192Z,3.62
2023-03-14T03:08:30.556Z,4.17
2023-03-14T03:11:00.187Z,3.72
2023-03-14T03:13:28.427Z,4.25
2023-03-14T03:15:56.581Z,4.53
2023-03-14T03:18:24.291Z,4.47
2023-03-14T03:20:51.906Z,3.97
2023-03-14T03:23:19.746Z,4.43
2023-03-14T03:25:51.030Z,4.60
2023-03-14T03:28:19.492Z,4.30
2023-03-14T03:30:47.990Z,4.07
2023-03-14T03:33:15.848Z,4.57
2023-03-14T03:35:48.797Z,4.60
2023-03-14T03:38:18.092Z,4.35
2023-03-14T03:40:45.977Z,4.00
2023-03-14T03:43:13.660Z,3.70
2023-03-14T03:45:42.215Z,4.13
2023-03-14T03:48:09.842Z,4.50
2023-03-14T03:50:37.373Z,4.25
2023-03-14T03:53:05.288Z,3.42
2023-03-14T03:55:32.850Z,3.78
2023-03-14T03:58:00.483Z,3.90
2023-03-14T04:00:28.740Z,3.95
2023-03-14T04:02:56.633Z,4.45
2023-03-14T04:05:24.370Z,4.22
2023-03-14T04:07:52.466Z,4.40
2023-03-14T04:10:20.762Z,4.17
2023-03-14T04:12:48.565Z,4.18
2023-03-14T04:15:18.302Z,3.92
2023-03-14T04:17:46.314Z,3.70
2023-03-14T04:20:17.935Z,3.75
2023-03-14T04:22:45.813Z,3.70
2023-03-14T04:25:13.457Z,3.92
2023-03-14T04:27:41.490Z,3.92
2023-03-14T04:30:10.922Z,3.55
2023-03-14T04:32:41.671Z,3.67
2023-03-14T04:35:09.819Z,3.53
2023-03-14T04:37:37.766Z,3.20
2023-03-14T04:40:08.271Z,3.80
2023-03-14T04:42:36.125Z,3.50
2023-03-14T04:45:04.033Z,3.22
2023-03-14T04:47:32.227Z,3.10
2023-03-14T04:50:00.630Z,3.33
2023-03-14T04:52:28.194Z,3.10
2023-03-14T04:54:56.249Z,3.10
2023-03-14T04:57:24.408Z,3.65
2023-03-14T04:59:52.989Z,2.80
2023-03-14T05:02:22.232Z,2.75
2023-03-14T05:04:50.290Z,2.67
2023-03-14T05:07:18.085Z,3.25
2023-03-14T05:09:47.562Z,2.85
2023-03-14T05:12:16.845Z,2.80
2023-03-14T05:14:45.996Z,2.83
2023-03-14T05:17:15.530Z,2.53
2023-03-14T05:19:44.573Z,3.50
2023-03-14T05:22:12.768Z,3.20
2023-03-14T05:24:40.545Z,3.63
2023-03-14T05:27:08.610Z,3.37
2023-03-14T05:29:36.674Z,2.90
2023-03-14T05:32:04.652Z,3.12
2023-03-14T05:34:32.704Z,2.83
2023-03-14T05:37:02.458Z,3.40
2023-03-14T05:39:32.217Z,3.08
2023-03-14T05:42:00.680Z,3.03
2023-03-14T05:44:28.417Z,3.15
2023-03-14T05:46:56.337Z,3.17
2023-03-14T05:49:24.465Z,3.10
2023-03-14T05:51:52.376Z,3.50
2023-03-14T05:54:20.361Z,3.25
2023-03-14T05:56:48.038Z,2.78
2023-03-14T05:59:16.007Z,2.92
2023-03-14T06:01:44.243Z,3.30
2023-03-14T06:04:12.355Z,3.05
2023-03-14T06:06:40.102Z,3.08
2023-03-14T06:09:08.155Z,2.67
2023-03-14T06:11:36.928Z,2.75
2023-03-14T06:14:04.803Z,2.93
2023-03-14T06:16:33.184Z,2.60
2023-03-14T06:19:01.689Z,3.62
2023-03-14T06:21:29.741Z,2.72
2023-03-14T06:23:57.365Z,3.22
2023-03-14T06:26:26.114Z,3.10
2023-03-14T06:28:54.771Z,2.87
2023-03-14T06:31:22.538Z,2.85
2023-03-14T06:33:50.768Z,3.33
2023-03-14T06:36:19.201Z,3.40
2023-03-14T06:38:47.189Z,2.63
2023-03-14T06:41:15.303Z,2.87
2023-03-14T06:43:43.333Z,2.67
2023-03-14T06:46:11.259Z,3.42
2023-03-14T06:48:39.539Z,3.22
2023-03-14T06:51:07.913Z,3.30
2023-03-14T06:53:35.978Z,3.47
2023-03-14T06:56:04.126Z,3.40
2023-03-14T06:58:32.577Z,3.42
2023-03-14T07:01:00.820Z,4.03
2023-03-14T07:03:30.095Z,4.30
2023-03-14T07:05:57.821Z,3.40
2023-03-14T07:08:25.365Z,3.17
2023-03-14T07:10:53.215Z,3.70
2023-03-14T07:13:20.827Z,3.25
2023-03-14T07:15:49.400Z,3.33
2023-03-14T07:18:17.271Z,3.62
2023-03-14T07:20:46.821Z,3.28
2023-03-14T07:23:14.594Z,3.15
2023-03-14T07:25:43.843Z,3.75
2023-03-14T07:28:11.424Z,3.40
2023-03-14T07:30:39.389Z,3.25
2023-03-14T07:33:11.624Z,3.12
2023-03-14T07:35:39.668Z,3.58
2023-03-14T07:38:07.258Z,3.03
2023-03-14T07:40:35.517Z,3.13
2023-03-14T07:43:04.254Z,2.85
2023-03-14T07:45:42.479Z,2.90
2023-03-14T07:48:10.974Z,2.50
2023-03-14T07:50:38.555Z,2.40
2023-03-14T07:53:06.043Z,3.07
2023-03-14T07:55:34.066Z,3.05
2023-03-14T07:58:01.648Z,3.28
2023-03-14T08:00:29.588Z,3.17
2023-03-14T08:02:57.368Z,2.62
2023-03-14T08:05:25.107Z,2.90
2023-03-14T08:07:52.765Z,2.58
2023-03-14T08:10:23.619Z,2.67
2023-03-14T08:12:58.896Z,2.90
2023-03-14T08:15:27.572Z,2.85
2023-03-14T08:17:55.318Z,2.70
2023-03-14T08:20:24.854Z,3.15
2023-03-14T08:22:53.184Z,3.03
2023-03-14T08:25:20.796Z,2.75
2023-03-14T08:27:48.345Z,3.30
2023-03-14T08:30:17.756Z,3.30
2023-03-14T08:32:45.437Z,3.28
2023-03-14T08:35:13.247Z,3.30
2023-03-14T08:37:41.218Z,3.10
2023-03-14T08:40:11.029Z,2.90
2023-03-14T08:42:40.000Z,2.40
2023-03-14T08:45:09.296Z,2.12
2023-03-14T08:47:36.960Z,2.42
2023-03-14T08:50:06.643Z,3.00
2023-03-14T08:52:38.693Z,3.85
2023-03-14T08:55:06.914Z,3.77
2023-03-14T08:57:34.763Z,2.95
2023-03-14T09:00:13.344Z,2.53
2023-03-14T09:02:41.343Z,2.47
2023-03-14T09:05:09.519Z,2.30
2023-03-14T09:07:37.557Z,2.30
2023-03-14T09:10:06.505Z,1.85
2023-03-14T09:12:35.060Z,2.75
2023-03-14T09:15:03.609Z,2.40
2023-03-14T09:17:31.456Z,2.25
2023-03-14T09:20:06.281Z,2.00
2023-03-14T09:22:36.677Z,2.20
2023-03-14T09:25:05.610Z,2.20
2023-03-14T09:27:33.322Z,2.70
2023-03-14T09:30:01.410Z,2.30
2023-03-14T09:32:29.178Z,2.17
2023-03-14T09:34:56.915Z,2.20
2023-03-14T09:37:24.812Z,2.30
2023-03-14T09:39:52.642Z,2.30
2023-03-14T09:42:23.710Z,1.67
2023-03-14T09:45:01.009Z,1.70
2023-03-14T09:47:28.962Z,2.25
2023-03-14T09:50:04.392Z,1.83
2023-03-14T09:52:36.414Z,1.05
2023-03-14T09:55:06.713Z,1.08
2023-03-14T09:57:36.892Z,0.67
2023-03-14T10:00:15.869Z,1.35
2023-03-14T10:02:54.892Z,0.65
2023-03-14T10:05:24.569Z,1.10
2023-03-14T10:07:52.387Z,1.02
2023-03-14T10:10:22.480Z,0.70
2023-03-14T10:12:59.578Z,0.40
2023-03-14T10:15:37.166Z,0.60
2023-03-14T10:18:11.082Z,0.65
2023-03-14T10:20:43.527Z,0.70
2023-03-14T10:23:14.037Z,0.87
2023-03-14T10:25:45.143Z,0.62
2023-03-14T10:28:28.075Z,0.70
2023-03-14T10:30:56.949Z,0.85
2023-03-14T10:33:26.825Z,1.17
2023-03-14T10:36:20.676Z,0.90
2023-03-14T10:38:48.966Z,0.98
2023-03-14T10:41:36.023Z,0.40
2023-03-14T10:44:04.453Z,1.02
2023-03-14T10:46:34.366Z,0.80
2023-03-14T10:49:46.384Z,0.50
2023-03-14T10:52:50.944Z,1.30
2023-03-14T10:55:16.421Z,0.85
2023-03-14T10:57:45.162Z,0.62
2023-03-14T11:00:18.293Z,0.50
2023-03-14T11:03:05.169Z,0.60
2023-03-14T11:05:46.548Z,0.70
2023-03-14T11:08:26.319Z,0.60
2023-03-14T11:11:08.806Z,0.60
2023-03-14T11:13:44.843Z,0.60
2023-03-14T11:16:26.393Z,0.50
2023-03-14T11:18:57.336Z,0.60
2023-03-14T11:21:56.826Z,0.50
2023-03-14T11:24:58.790Z,0.60
2023-03-14T11:27:29.062Z,0.70
2023-03-14T11:30:16.941Z,0.70
2023-03-14T11:32:47.095Z,1.00
2023-03-14T11:35:25.546Z,1.05
2023-03-14T11:37:56.343Z,0.60
2023-03-14T11:40:27.629Z,0.62
2023-03-14T11:43:20.968Z,1.30
2023-03-14T11:45:51.173Z,0.55
2023-03-14T11:48:26.570Z,0.70
2023-03-14T11:50:56.674Z,0.60
2023-03-14T11:53:49.981Z,0.80
2023-03-14T11:56:48.920Z,0.70
2023-03-14T11:59:21.287Z,1.10
2023-03-14T12:01:55.962Z,0.47
2023-03-14T12:05:16.509Z,0.82
2023-03-14T12:08:10.647Z,1.00
2023-03-14T12:10:51.245Z,0.70
2023-03-14T12:13:19.312Z,0.70
2023-03-14T12:15:55.581Z,0.70
2023-03-14T12:18:35.491Z,0.65
2023-03-14T12:21:13.193Z,0.62
2023-03-14T12:23:51.403Z,1.03
2023-03-14T12:26:23.325Z,4.53
2023-03-14T12:28:58.399Z,0.88
2023-03-14T12:31:32.799Z,7.65
2023-03-14T12:34:12.953Z,0.80
2023-03-14T12:36:57.731Z,0.90
2023-03-14T12:39:59.527Z,1.00
2023-03-14T12:42:42.485Z,0.85
2023-03-14T12:45:26.561Z,0.80
2023-03-14T12:48:08.297Z,0.73
2023-03-14T12:50:44.602Z,0.97
2023-03-14T12:53:24.467Z,1.27
2023-03-14T12:56:21.406Z,0.77
2023-03-14T12:59:12.086Z,1.17
2023-03-14T13:01:48.011Z,0.77
2023-03-14T13:04:18.031Z,0.90
2023-03-14T13:06:54.902Z,0.70
2023-03-14T13:09:34.792Z,0.90
2023-03-14T13:12:14.890Z,0.68
2023-03-14T13:14:46.351Z,1.02
2023-03-14T13:17:34.136Z,0.80
2023-03-14T13:20:13.048Z,1.05
2023-03-14T13:22:47.855Z,1.10
2023-03-14T13:25:17.934Z,0.82
2023-03-14T13:27:45.574Z,0.88
2023-03-14T13:30:24.197Z,0.90
2023-03-14T13:32:53.893Z,0.90
2023-03-14T13:35:23.600Z,1.10
2023-03-14T13:38:10.270Z,1.45
2023-03-14T13:40:39.377Z,1.30
2023-03-14T13:43:13.520Z,1.93
2023-03-14T13:46:37.265Z,1.40
2023-03-14T13:49:07.019Z,1.35
2023-03-14T13:51:35.060Z,1.40
2023-03-14T13:54:06.279Z,1.25
2023-03-14T13:56:34.763Z,1.63
2023-03-14T13:59:02.597Z,1.40
2023-03-14T14:01:33.645Z,1.42
2023-03-14T14:04:16.506Z,2.87
2023-03-14T14:07:12.746Z,2.80
2023-03-14T14:09:47.722Z,1.50
2023-03-14T14:12:28.441Z,2.30
2023-03-14T14:15:07.778Z,2.65
2023-03-14T14:18:17.230Z,1.85
2023-03-14T14:20:47.825Z,1.45
2023-03-14T14:23:29.033Z,2.53
2023-03-14T14:26:00.517Z,1.98
2023-03-14T14:28:33.802Z,1.10
2023-03-14T14:31:22.270Z,1.10
2023-03-14T14:34:05.884Z,1.37
2023-03-14T14:36:33.694Z,1.00
2023-03-14T14:39:08.644Z,1.17
2023-03-14T14:41:41.087Z,1.02
2023-03-14T14:44:08.764Z,1.00
2023-03-14T14:46:38.352Z,1.00
2023-03-14T14:49:11.849Z,1.17
2023-03-14T14:51:44.130Z,1.60
2023-03-14T14:54:15.103Z,1.50
2023-03-14T14:56:50.918Z,1.40
2023-03-14T14:59:26.052Z,1.45
2023-03-14T15:02:02.464Z,1.57
2023-03-14T15:04:33.047Z,1.60
2023-03-14T15:07:00.949Z,1.70
2023-03-14T15:09:28.618Z,1.35
2023-03-14T15:11:56.908Z,1.80
2023-03-14T15:14:24.750Z,1.90
2023-03-14T15:16:52.298Z,1.60
2023-03-14T15:19:26.042Z,2.17
2023-03-14T15:21:54.520Z,2.10
2023-03-14T15:24:23.086Z,2.20
2023-03-14T15:26:50.760Z,1.97
2023-03-14T15:29:18.728Z,1.60
2023-03-14T15:31:46.418Z,1.25
2023-03-14T15:34:14.046Z,1.40
2023-03-14T15:36:41.861Z,1.20
2023-03-14T15:39:11.792Z,1.47
2023-03-14T15:41:39.593Z,2.40
2023-03-14T15:44:07.747Z,2.35
2023-03-14T15:46:35.626Z,2.08
2023-03-14T15:49:03.680Z,1.33
2023-03-14T15:51:31.612Z,1.50
2023-03-14T15:53:59.218Z,1.45
2023-03-14T15:56:28.921Z,1.50
2023-03-14T15:58:57.323Z,1.27
2023-03-14T16:01:25.419Z,1.10
2023-03-14T16:03:53.844Z,1.40
2023-03-14T16:06:21.446Z,1.33
2023-03-14T16:08:49.157Z,1.77
2023-03-14T16:11:20.342Z,2.20
2023-03-14T16:13:49.882Z,1.83
2023-03-14T16:16:18.037Z,1.63
2023-03-14T16:18:45.652Z,1.83
2023-03-14T16:21:16.099Z,1.67
2023-03-14T16:23:44.560Z,1.33
2023-03-14T16:26:17.172Z,1.52
2023-03-14T16:28:46.186Z,1.37
2023-03-14T16:31:17.299Z,1.05
2023-03-14T16:33:45.481Z,1.23
2023-03-14T16:36:14.514Z,1.00
2023-03-14T16:38:43.729Z,0.90
2023-03-14T16:41:14.584Z,1.20
2023-03-14T16:43:42.986Z,1.27
2023-03-14T16:46:14.701Z,1.40
2023-03-14T16:48:43.132Z,1.58
2023-03-14T16:51:11.328Z,1.40
2023-03-14T16:53:38.838Z,1.43
2023-03-14T16:56:06.858Z,1.60
2023-03-14T16:58:35.384Z,1.95
2023-03-14T17:01:11.137Z,3.42
2023-03-14T17:03:41.626Z,2.33
2023-03-14T17:06:15.221Z,1.87
2023-03-14T17:08:43.626Z,1.62
2023-03-14T17:11:11.455Z,1.77
2023-03-14T17:13:39.257Z,2.47
2023-03-14T17:16:07.725Z,2.92
2023-03-14T17:18:36.149Z,2.13
2023-03-14T17:21:04.086Z,1.62
2023-03-14T17:23:33.549Z,1.80
2023-03-14T17:26:01.199Z,2.00
2023-03-14T17:28:28.900Z,1.62
2023-03-14T17:31:07.132Z,1.60
2023-03-14T17:33:35.084Z,2.87
2023-03-14T17:36:03.626Z,3.15
2023-03-14T17:38:32.032Z,6.62
2023-03-14T17:40:59.778Z,6.45
2023-03-14T17:43:27.983Z,4.90
2023-03-14T17:46:08.788Z,3.58
2023-03-14T17:48:37.136Z,2.40
2023-03-14T17:51:04.972Z,2.05
2023-03-14T17:53:32.549Z,2.22
2023-03-14T17:56:00.893Z,1.50
2023-03-14T17:58:30.620Z,1.58
2023-03-14T18:00:58.595Z,1.12
2023-03-14T18:03:26.376Z,1.20
2023-03-14T18:05:53.836Z,1.52
2023-03-14T18:08:21.653Z,1.20
2023-03-14T18:10:54.002Z,1.50
2023-03-14T18:13:21.582Z,1.42
2023-03-14T18:15:49.439Z,1.90
2023-03-14T18:18:17.440Z,1.90
2023-03-14T18:20:50.292Z,2.20
2023-03-14T18:23:18.127Z,1.30
2023-03-14T18:25:45.687Z,1.48
2023-03-14T18:28:13.162Z,1.52
2023-03-14T18:30:41.637Z,1.23
2023-03-14T18:33:09.602Z,1.40
2023-03-14T18:35:37.837Z,1.62
2023-03-14T18:38:05.978Z,1.00
2023-03-14T18:40:34.828Z,1.50
2023-03-14T18:43:02.869Z,1.50
2023-03-14T18:45:31.550Z,1.80
2023-03-14T18:47:59.747Z,1.50
2023-03-14T18:50:28.184Z,1.60
2023-03-14T18:52:56.095Z,1.50
2023-03-14T18:55:23.566Z,1.42
2023-03-14T18:57:53.247Z,1.20
2023-03-14T19:00:22.132Z,1.05
2023-03-14T19:02:51.685Z,1.40
2023-03-14T19:05:22.985Z,0.88
2023-03-14T19:07:50.917Z,1.27
2023-03-14T19:10:18.907Z,1.07
2023-03-14T19:12:48.110Z,0.93
2023-03-14T19:15:16.350Z,1.08
2023-03-14T19:17:44.084Z,1.37
2023-03-14T19:20:13.953Z,1.15
2023-03-14T19:22:42.584Z,1.30
2023-03-14T19:25:10.897Z,1.20
2023-03-14T19:27:39.006Z,1.08
2023-03-14T19:30:07.599Z,1.10
2023-03-14T19:32:35.452Z,0.90
2023-03-14T19:35:03.548Z,0.90
2023-03-14T19:37:31.470Z,0.90
2023-03-14T19:39:59.064Z,0.90
2023-03-14T19:42:26.637Z,1.02
2023-03-14T19:44:56.477Z,1.37
2023-03-14T19:47:24.050Z,0.90
2023-03-14T19:49:52.654Z,0.80
2023-03-14T19:52:20.586Z,1.20
2023-03-14T19:54:48.195Z,1.55
2023-03-14T19:57:17.585Z,1.35
2023-03-14T19:59:45.502Z,1.27
2023-03-14T20:02:16.549Z,1.10
2023-03-14T20:04:46.587Z,2.35
2023-03-14T20:07:14.274Z,2.78
2023-03-14T20:09:42.758Z,1.50
2023-03-14T20:12:10.814Z,1.97
2023-03-14T20:14:38.284Z,2.12
2023-03-14T20:17:05.956Z,1.65
2023-03-14T20:19:36.154Z,1.73
2023-03-14T20:22:04.482Z,1.75
2023-03-14T20:24:35.139Z,2.00
2023-03-14T20:27:03.029Z,1.37
2023-03-14T20:29:31.670Z,1.40
2023-03-14T20:32:00.161Z,1.30
2023-03-14T20:34:32.331Z,1.55
2023-03-14T20:37:00.001Z,1.40
2023-03-14T20:39:27.788Z,1.52
2023-03-14T20:41:55.380Z,1.52
2023-03-14T20:44:22.863Z,1.50
2023-03-14T20:46:50.766Z,2.50
2023-03-14T20:49:18.257Z,2.10
2023-03-14T20:51:45.831Z,3.65
2023-03-14T20:54:16.470Z,4.18
2023-03-14T20:56:46.315Z,2.97
2023-03-14T20:59:14.373Z,2.45
2023-03-14T21:04:27.491Z,2.72
2023-03-14T21:06:55.258Z,2.50
2023-03-14T21:09:24.371Z,2.50
2023-03-14T21:11:52.624Z,2.35
2023-03-14T21:14:22.440Z,2.40
2023-03-14T21:16:50.305Z,2.35
2023-03-14T21:19:18.366Z,2.62
2023-03-14T21:21:45.883Z,2.58
2023-03-14T21:24:15.375Z,2.83
2023-03-14T21:26:43.114Z,3.00
2023-03-14T21:29:10.565Z,2.92
2023-03-14T21:31:38.859Z,2.70
2023-03-14T21:34:06.620Z,3.15
2023-03-14T21:36:34.169Z,3.58
2023-03-14T21:39:01.831Z,3.57
2023-03-14T21:41:29.947Z,4.10
2023-03-14T21:43:57.616Z,4.37
2023-03-14T21:46:27.861Z,4.45
2023-03-14T21:48:55.795Z,4.40
2023-03-14T21:51:29.940Z,4.57
2023-03-14T21:53:57.841Z,4.22
2023-03-14T21:56:27.877Z,3.75
2023-03-14T21:58:59.974Z,3.90
2023-03-14T22:01:27.825Z,3.08
2023-03-14T22:03:55.886Z,3.20
2023-03-14T22:06:23.466Z,2.70
2023-03-14T22:08:51.046Z,2.30
2023-03-14T22:11:18.894Z,3.22
2023-03-14T22:13:46.380Z,3.17
2023-03-14T22:16:14.318Z,3.40
2023-03-14T22:18:42.186Z,3.50
2023-03-14T22:21:09.767Z,3.35
2023-03-14T22:23:37.324Z,3.33
2023-03-14T22:26:05.266Z,3.28
2023-03-14T22:28:32.763Z,3.40
2023-03-14T22:31:03.287Z,3.45
2023-03-14T22:33:31.560Z,3.95
2023-03-14T22:35:59.069Z,4.37
2023-03-14T22:38:26.635Z,3.90
2023-03-14T22:41:01.051Z,4.57
2023-03-14T22:43:29.516Z,4.80
2023-03-14T22:46:01.505Z,4.32
2023-03-14T22:48:29.437Z,4.10
2023-03-14T22:50:57.508Z,3.80
2023-03-14T22:53:25.584Z,3.63
2023-03-14T22:55:59.963Z,2.62
2023-03-14T22:58:28.834Z,1.90
2023-03-14T23:00:56.409Z,1.92
2023-03-14T23:03:24.212Z,1.80
2023-03-14T23:05:52.224Z,2.00
2023-03-14T23:08:20.091Z,1.62
2023-03-14T23:10:47.633Z,1.67
2023-03-14T23:13:15.434Z,1.20
2023-03-14T23:15:43.733Z,1.80
2023-03-14T23:18:13.669Z,1.30
2023-03-14T23:20:43.165Z,1.48
2023-03-14T23:23:13.699Z,1.17
2023-03-14T23:25:52.954Z,1.17
2023-03-14T23:28:23.093Z,1.37
2023-03-14T23:30:56.036Z,1.10
2023-03-14T23:33:24.787Z,1.30
2023-03-14T23:35:54.497Z,1.10
2023-03-14T23:38:25.894Z,0.82
2023-03-14T23:40:54.107Z,0.60
2023-03-14T23:43:22.049Z,0.97
2023-03-14T23:45:54.501Z,0.90
2023-03-14T23:48:27.311Z,0.73
2023-03-14T23:51:00.274Z,1.15
2023-03-14T23:53:29.281Z,0.75
2023-03-14T23:55:57.233Z,0.87
2023-03-14T23:58:25.168Z,0.82
